createdAt,value
2019-03-28T00:03:20.791Z,8.00
2019-03-28T00:05:54.383Z,8.00
2019-03-28T00:08:37.472Z,8.00
2019-03-28T00:11:11.116Z,8.00
2019-03-28T00:13:44.823Z,7.90
2019-03-28T00:16:22.187Z,7.90
2019-03-28T00:18:57.515Z,7.90
2019-03-28T00:21:52.927Z,7.90
2019-03-28T00:24:47.175Z,7.90
2019-03-28T00:27:21.272Z,7.80
2019-03-28T00:29:57.966Z,7.80
2019-03-28T00:32:31.722Z,7.80
2019-03-28T00:35:17.566Z,7.80
2019-03-28T00:37:51.288Z,7.80
2019-03-28T00:40:36.995Z,7.80
2019-03-28T00:43:10.658Z,7.80
2019-03-28T00:45:51.724Z,7.80
2019-03-28T00:48:25.439Z,7.80
2019-03-28T00:51:11.436Z,7.80
2019-03-28T00:53:45.159Z,7.80
2019-03-28T00:56:18.750Z,7.80
2019-03-28T00:59:02.095Z,7.80
2019-03-28T01:01:36.040Z,7.80
2019-03-28T01:04:24.680Z,7.80
2019-03-28T01:06:58.618Z,7.80
2019-03-28T01:09:38.346Z,7.80
2019-03-28T01:12:12.018Z,7.80
2019-03-28T01:14:55.189Z,7.80
2019-03-28T01:17:28.859Z,7.80
2019-03-28T01:20:11.227Z,7.80
2019-03-28T01:22:44.897Z,7.90
2019-03-28T01:25:25.974Z,7.90
2019-03-28T01:27:59.682Z,7.90
2019-03-28T01:30:33.381Z,7.90
2019-03-28T01:33:16.708Z,7.90
2019-03-28T01:35:50.299Z,7.90
2019-03-28T01:38:26.544Z,8.00
2019-03-28T01:41:00.210Z,8.00
2019-03-28T01:43:44.997Z,8.00
2019-03-28T01:46:18.761Z,8.00
2019-03-28T01:48:52.442Z,8.10
2019-03-28T01:51:26.103Z,8.10
2019-03-28T01:54:05.862Z,8.10
2019-03-28T01:59:52.565Z,8.20
2019-03-28T02:02:26.302Z,8.20
2019-03-28T02:05:13.268Z,8.20
2019-03-28T02:07:46.854Z,8.20
2019-03-28T02:10:20.823Z,8.20
2019-03-28T02:12:54.487Z,8.10
2019-03-28T02:15:38.405Z,8.10
2019-03-28T02:18:12.126Z,8.10
2019-03-28T02:20:49.013Z,8.10
2019-03-28T02:23:22.740Z,8.10
2019-03-28T02:25:56.373Z,8.10
2019-03-28T02:28:36.462Z,8.10
2019-03-28T02:31:10.096Z,8.10
2019-03-28T02:33:52.639Z,8.10
2019-03-28T02:36:26.341Z,8.10
2019-03-28T02:39:06.651Z,8.00
2019-03-28T02:41:40.397Z,8.00
2019-03-28T02:44:17.601Z,8.00
2019-03-28T02:49:24.294Z,8.00
2019-03-28T02:51:58.142Z,8.00
2019-03-28T02:54:31.926Z,8.00
2019-03-28T02:57:06.138Z,8.00
2019-03-28T02:59:42.266Z,8.00
2019-03-28T03:02:15.888Z,8.00
2019-03-28T03:05:01.875Z,7.90
2019-03-28T03:07:35.543Z,7.90
2019-03-28T03:10:09.316Z,7.90
2019-03-28T03:12:56.514Z,7.90
2019-03-28T03:15:30.358Z,7.90
2019-03-28T03:18:04.081Z,7.90
2019-03-28T03:20:37.723Z,7.90
2019-03-28T03:23:11.420Z,7.90
2019-03-28T03:25:51.127Z,7.90
2019-03-28T03:28:25.093Z,7.90
2019-03-28T03:30:59.297Z,7.90
2019-03-28T03:33:32.876Z,7.90
2019-03-28T03:36:06.559Z,7.90
2019-03-28T03:38:58.898Z,7.90
2019-03-28T03:41:32.564Z,7.90
2019-03-28T03:44:06.344Z,7.90
2019-03-28T03:46:43.177Z,7.90
2019-03-28T03:49:16.874Z,7.90
2019-03-28T03:52:00.899Z,7.90
2019-03-28T03:54:34.575Z,7.90
2019-03-28T03:57:32.808Z,7.90
2019-03-28T04:00:31.799Z,7.90
2019-03-28T04:03:05.764Z,7.90
2019-03-28T04:05:47.899Z,7.90
2019-03-28T04:08:21.604Z,7.90
2019-03-28T04:10:55.282Z,7.90
2019-03-28T04:13:28.932Z,7.90
2019-03-28T04:16:04.533Z,7.80
2019-03-28T04:18:38.189Z,7.80
2019-03-28T04:21:20.880Z,7.80
2019-03-28T04:23:55.702Z,7.90
2019-03-28T04:26:35.259Z,7.90
2019-03-28T04:29:08.897Z,7.80
2019-03-28T04:32:04.879Z,7.90
2019-03-28T04:34:38.523Z,7.90
2019-03-28T04:37:12.173Z,7.90
2019-03-28T04:39:45.825Z,7.90
2019-03-28T04:42:22.489Z,7.90
2019-03-28T04:44:56.242Z,7.90
2019-03-28T04:47:29.980Z,7.90
2019-03-28T04:50:04.112Z,7.90
2019-03-28T04:52:37.753Z,7.90
2019-03-28T04:55:11.507Z,7.90
2019-03-28T05:00:33.574Z,7.90
2019-03-28T05:03:07.197Z,7.80
2019-03-28T05:05:53.205Z,7.90
2019-03-28T05:08:26.961Z,7.80
2019-03-28T05:11:07.308Z,7.80
2019-03-28T05:13:40.951Z,7.80
2019-03-28T05:16:14.715Z,7.90
2019-03-28T05:18:48.340Z,7.90
2019-03-28T05:21:33.678Z,7.90
2019-03-28T05:24:07.355Z,7.90
2019-03-28T05:26:41.339Z,7.90
2019-03-28T05:29:21.570Z,7.90
2019-03-28T05:31:55.283Z,7.90
2019-03-28T05:34:28.871Z,7.90
2019-03-28T05:37:05.006Z,7.80
2019-03-28T05:39:38.601Z,7.80
2019-03-28T05:42:30.706Z,7.80
2019-03-28T05:45:05.955Z,7.80
2019-03-28T05:47:55.010Z,7.80
2019-03-28T05:50:28.835Z,7.80
2019-03-28T05:53:06.112Z,7.70
2019-03-28T05:55:39.707Z,7.70
2019-03-28T05:58:28.700Z,7.70
2019-03-28T06:01:02.706Z,7.70
2019-03-28T06:03:36.345Z,7.70
2019-03-28T06:06:18.644Z,7.70
2019-03-28T06:08:52.228Z,7.70
2019-03-28T06:11:30.092Z,7.70
2019-03-28T06:14:03.769Z,7.80
2019-03-28T06:16:37.372Z,7.80
2019-03-28T06:19:19.003Z,7.80
2019-03-28T06:21:52.658Z,7.80
2019-03-28T06:24:26.359Z,7.80
2019-03-28T06:27:07.767Z,7.80
2019-03-28T06:29:41.512Z,7.80
2019-03-28T06:32:18.152Z,7.90
2019-03-28T06:34:52.366Z,7.90
2019-03-28T06:37:26.167Z,7.90
2019-03-28T06:39:59.807Z,7.90
2019-03-28T06:42:33.443Z,7.90
2019-03-28T06:45:09.225Z,7.90
2019-03-28T06:47:42.923Z,8.00
2019-03-28T06:50:25.682Z,8.00
2019-03-28T06:52:59.300Z,8.00
2019-03-28T06:55:32.885Z,8.00
2019-03-28T06:58:08.655Z,8.00
2019-03-28T07:00:42.315Z,8.00
2019-03-28T07:03:16.004Z,8.00
2019-03-28T07:05:49.750Z,8.00
2019-03-28T07:08:23.338Z,8.00
2019-03-28T07:10:58.107Z,8.00
2019-03-28T07:13:31.938Z,8.10
2019-03-28T07:16:05.819Z,8.10
2019-03-28T07:18:40.843Z,8.00
2019-03-28T07:21:14.558Z,8.00
2019-03-28T07:24:13.528Z,8.10
2019-03-28T07:26:47.239Z,8.10
2019-03-28T07:29:20.835Z,8.10
2019-03-28T07:32:09.955Z,8.20
2019-03-28T07:34:43.614Z,8.20
2019-03-28T07:40:00.234Z,8.30
2019-03-28T07:42:37.178Z,8.30
2019-03-28T07:45:11.094Z,8.20
2019-03-28T07:47:44.808Z,8.20
2019-03-28T07:50:18.518Z,8.20
2019-03-28T07:52:52.280Z,8.20
2019-03-28T07:55:25.926Z,8.30
2019-03-28T07:57:59.657Z,8.30
2019-03-28T08:00:33.622Z,8.40
2019-03-28T08:03:11.996Z,8.40
2019-03-28T08:05:45.610Z,8.40
2019-03-28T08:08:19.202Z,8.40
2019-03-28T08:11:08.587Z,8.50
2019-03-28T08:13:42.370Z,8.50
2019-03-28T08:16:16.074Z,8.60
2019-03-28T08:18:49.793Z,8.60
2019-03-28T08:21:23.413Z,8.60
2019-03-28T08:23:57.010Z,8.60
2019-03-28T08:26:46.238Z,8.60
2019-03-28T08:29:19.900Z,8.70
2019-03-28T08:31:55.118Z,8.70
2019-03-28T08:34:31.238Z,8.70
2019-03-28T08:37:04.283Z,8.60
2019-03-28T08:39:53.197Z,8.70
2019-03-28T08:42:27.154Z,8.80
2019-03-28T08:45:07.079Z,8.90
2019-03-28T08:47:41.081Z,8.90
2019-03-28T08:50:14.855Z,9.00
2019-03-28T08:52:48.533Z,9.00
2019-03-28T08:55:22.166Z,9.10
2019-03-28T08:58:04.858Z,9.20
2019-03-28T09:00:50.904Z,9.10
2019-03-28T09:03:13.993Z,9.20
2019-03-28T09:05:47.623Z,9.20
2019-03-28T09:08:30.214Z,9.20
2019-03-28T09:11:03.877Z,9.40
2019-03-28T09:13:37.598Z,9.50
2019-03-28T09:16:11.175Z,9.50
2019-03-28T09:18:44.858Z,9.50
2019-03-28T09:21:20.345Z,9.40
2019-03-28T09:24:08.882Z,9.50
2019-03-28T09:26:42.562Z,9.50
2019-03-28T09:29:16.166Z,9.40
2019-03-28T09:31:49.937Z,9.40
2019-03-28T09:34:29.647Z,9.50
2019-03-28T09:37:03.288Z,9.60
2019-03-28T09:39:36.981Z,9.70
2019-03-28T09:42:14.278Z,9.70
2019-03-28T09:44:48.039Z,9.70
2019-03-28T09:47:21.747Z,9.70
2019-03-28T09:49:55.422Z,9.60
2019-03-28T09:52:29.125Z,9.60
2019-03-28T09:55:02.805Z,9.50
2019-03-28T09:57:36.444Z,9.50
2019-03-28T10:00:19.524Z,9.60
2019-03-28T10:02:53.203Z,9.60
2019-03-28T10:05:38.969Z,9.50
2019-03-28T10:08:12.664Z,9.60
2019-03-28T10:10:48.755Z,9.70
2019-03-28T10:13:34.564Z,9.70
2019-03-28T10:16:08.913Z,9.80
2019-03-28T10:18:43.153Z,9.70
2019-03-28T10:21:17.055Z,9.60
2019-03-28T10:23:50.789Z,9.60
2019-03-28T10:26:24.480Z,9.50
2019-03-28T10:28:58.129Z,9.60
2019-03-28T10:31:31.955Z,9.60
2019-03-28T10:34:05.714Z,9.80
2019-03-28T10:36:42.512Z,9.90
2019-03-28T10:39:16.725Z,9.90
2019-03-28T10:41:50.395Z,9.90
2019-03-28T10:44:30.278Z,10.00
2019-03-28T10:47:04.998Z,10.10
2019-03-28T10:49:38.837Z,10.10
2019-03-28T10:52:12.496Z,10.10
2019-03-28T10:54:46.394Z,10.20
2019-03-28T10:57:32.543Z,10.30
2019-03-28T11:00:08.037Z,10.20
2019-03-28T11:02:41.794Z,10.20
2019-03-28T11:05:15.556Z,10.20
2019-03-28T11:08:07.609Z,10.20
2019-03-28T11:10:41.277Z,10.40
2019-03-28T11:13:14.935Z,10.30
2019-03-28T11:15:48.612Z,10.40
2019-03-28T11:18:22.268Z,10.40
2019-03-28T11:20:55.868Z,10.40
2019-03-28T11:23:29.575Z,10.30
2019-03-28T11:26:03.494Z,10.40
2019-03-28T11:28:37.681Z,10.30
2019-03-28T11:31:11.379Z,10.30
2019-03-28T11:33:45.615Z,10.30
2019-03-28T11:36:23.024Z,10.30
2019-03-28T11:38:56.885Z,10.40
2019-03-28T11:41:30.570Z,10.50
2019-03-28T11:44:11.615Z,10.60
2019-03-28T11:46:45.971Z,10.90
2019-03-28T11:49:20.171Z,10.90
2019-03-28T11:51:56.256Z,10.90
2019-03-28T11:54:30.528Z,11.00
2019-03-28T11:57:04.840Z,10.90
2019-03-28T11:59:42.480Z,10.80
2019-03-28T12:02:20.215Z,10.90
2019-03-28T12:04:52.091Z,11.10
2019-03-28T12:07:28.087Z,10.90
2019-03-28T12:10:02.363Z,10.90
2019-03-28T12:12:36.656Z,10.80
2019-03-28T12:15:14.902Z,10.60
2019-03-28T12:17:49.075Z,10.70
2019-03-28T12:20:23.298Z,10.70
2019-03-28T12:23:00.961Z,10.70
2019-03-28T12:25:35.249Z,10.60
2019-03-28T12:28:09.509Z,10.60
2019-03-28T12:30:44.043Z,10.70
2019-03-28T12:33:18.170Z,10.60
2019-03-28T12:35:55.679Z,10.70
2019-03-28T12:38:29.979Z,10.90
2019-03-28T12:41:08.483Z,10.80
2019-03-28T12:43:42.710Z,11.10
2019-03-28T12:46:20.475Z,11.00
2019-03-28T12:48:55.038Z,10.90
2019-03-28T12:51:29.254Z,10.80
2019-03-28T12:54:09.836Z,10.80
2019-03-28T12:56:43.605Z,10.80
2019-03-28T12:59:17.759Z,10.90
2019-03-28T13:01:58.298Z,11.00
2019-03-28T13:04:32.487Z,10.90
2019-03-28T13:07:06.223Z,10.80
2019-03-28T13:09:40.427Z,10.90
2019-03-28T13:12:14.258Z,10.90
2019-03-28T13:14:48.016Z,10.80
2019-03-28T13:17:21.858Z,10.90
2019-03-28T13:20:02.303Z,10.90
2019-03-28T13:22:36.596Z,10.90
2019-03-28T13:25:24.283Z,10.90
2019-03-28T13:27:58.482Z,10.80
2019-03-28T13:30:35.140Z,10.70
2019-03-28T13:33:09.430Z,10.70
2019-03-28T13:35:50.387Z,10.80
2019-03-28T13:38:24.089Z,10.70
2019-03-28T13:41:01.826Z,10.70
2019-03-28T13:43:35.440Z,10.70
2019-03-28T13:46:14.283Z,10.70
2019-03-28T13:48:48.527Z,10.80
2019-03-28T13:51:25.996Z,10.80
2019-03-28T13:53:59.636Z,10.70
2019-03-28T13:56:33.833Z,10.80
2019-03-28T13:59:15.430Z,10.90
2019-03-28T14:01:49.040Z,10.90
2019-03-28T14:04:27.342Z,10.80
2019-03-28T14:07:01.758Z,10.80
2019-03-28T14:09:37.450Z,10.80
2019-03-28T14:12:11.615Z,10.80
2019-03-28T14:14:53.423Z,10.80
2019-03-28T14:17:27.058Z,10.70
2019-03-28T14:20:00.764Z,10.70
2019-03-28T14:22:38.757Z,10.70
2019-03-28T14:25:12.342Z,10.60
2019-03-28T14:27:52.007Z,10.50
2019-03-28T14:30:26.624Z,10.50
2019-03-28T14:33:11.225Z,10.40
2019-03-28T14:35:39.090Z,10.30
2019-03-28T14:38:12.866Z,10.30
2019-03-28T14:40:58.314Z,10.30
2019-03-28T14:43:30.805Z,10.20
2019-03-28T14:46:08.957Z,10.20
2019-03-28T14:48:42.630Z,10.20
2019-03-28T14:51:20.378Z,10.30
2019-03-28T14:53:54.046Z,10.30
2019-03-28T14:56:28.214Z,10.30
2019-03-28T14:59:05.171Z,10.20
2019-03-28T15:01:38.821Z,10.20
2019-03-28T15:04:21.253Z,10.10
2019-03-28T15:06:55.026Z,10.10
2019-03-28T15:09:31.706Z,10.10
2019-03-28T15:12:09.062Z,10.10
2019-03-28T15:14:42.735Z,10.20
2019-03-28T15:17:23.160Z,10.00
2019-03-28T15:19:56.786Z,10.10
2019-03-28T15:22:30.412Z,10.00
2019-03-28T15:25:09.405Z,10.00
2019-03-28T15:27:43.110Z,10.10
2019-03-28T15:30:25.005Z,10.10
2019-03-28T15:32:58.625Z,10.00
2019-03-28T15:35:32.600Z,10.00
2019-03-28T15:38:13.775Z,10.00
2019-03-28T15:40:47.801Z,10.10
2019-03-28T15:43:24.844Z,10.10
2019-03-28T15:45:59.462Z,10.00
2019-03-28T15:48:36.716Z,10.00
2019-03-28T15:51:10.493Z,10.00
2019-03-28T15:53:49.601Z,10.00
2019-03-28T15:56:23.459Z,10.00
2019-03-28T15:59:02.007Z,10.10
2019-03-28T16:01:35.607Z,10.00
2019-03-28T16:04:12.247Z,10.00
2019-03-28T16:06:45.828Z,10.20
2019-03-28T16:09:26.989Z,10.10
2019-03-28T16:12:03.152Z,10.10
2019-03-28T16:14:36.906Z,10.10
2019-03-28T16:17:10.526Z,10.20
2019-03-28T16:19:45.209Z,10.10
2019-03-28T16:22:18.956Z,10.10
2019-03-28T16:25:04.494Z,10.10
2019-03-28T16:27:38.112Z,10.10
2019-03-28T16:30:14.444Z,10.10
2019-03-28T16:32:48.046Z,10.10
2019-03-28T16:35:21.740Z,10.10
2019-03-28T16:38:04.876Z,10.00
2019-03-28T16:40:38.526Z,10.00
2019-03-28T16:43:12.697Z,9.90
2019-03-28T16:45:46.321Z,10.00
2019-03-28T16:48:27.396Z,9.90
2019-03-28T16:51:00.996Z,9.90
2019-03-28T16:53:35.742Z,9.90
2019-03-28T16:56:09.707Z,9.90
2019-03-28T16:58:43.401Z,9.90
2019-03-28T17:01:32.939Z,9.90
2019-03-28T17:04:19.745Z,9.80
2019-03-28T17:06:42.036Z,9.80
2019-03-28T17:09:15.731Z,9.80
2019-03-28T17:11:55.912Z,9.80
2019-03-28T17:14:32.048Z,9.80
2019-03-28T17:17:05.722Z,9.80
2019-03-28T17:19:46.548Z,9.80
2019-03-28T17:22:20.255Z,9.80
2019-03-28T17:24:56.207Z,9.80
2019-03-28T17:27:29.821Z,9.80
2019-03-28T17:30:08.836Z,9.80
2019-03-28T17:32:42.435Z,9.70
2019-03-28T17:35:18.785Z,9.80
2019-03-28T17:37:52.487Z,9.80
2019-03-28T17:40:36.623Z,9.70
2019-03-28T17:43:09.106Z,9.70
2019-03-28T17:48:20.016Z,9.70
2019-03-28T17:50:53.776Z,9.70
2019-03-28T17:53:27.541Z,9.70
2019-03-28T17:56:10.755Z,9.60
2019-03-28T17:58:44.479Z,9.60
2019-03-28T18:01:20.388Z,9.60
2019-03-28T18:03:54.030Z,9.60
2019-03-28T18:06:35.416Z,9.60
2019-03-28T18:09:09.075Z,9.60
2019-03-28T18:11:46.029Z,9.60
2019-03-28T18:14:21.257Z,9.60
2019-03-28T18:16:54.979Z,9.60
2019-03-28T18:19:36.102Z,9.50
2019-03-28T18:22:09.859Z,9.50
2019-03-28T18:24:51.970Z,9.50
2019-03-28T18:27:25.607Z,9.50
2019-03-28T18:30:00.744Z,9.40
2019-03-28T18:32:34.551Z,9.30
2019-03-28T18:35:13.256Z,9.20
2019-03-28T18:37:47.195Z,9.00
2019-03-28T18:40:51.776Z,8.90
2019-03-28T18:43:52.014Z,8.80
2019-03-28T18:46:26.226Z,8.60
2019-03-28T18:49:01.528Z,8.60
2019-03-28T18:51:35.255Z,8.60
2019-03-28T18:54:10.921Z,8.50
2019-03-28T18:56:44.580Z,8.40
2019-03-28T18:59:23.740Z,8.30
2019-03-28T19:01:57.554Z,8.30
2019-03-28T19:04:31.374Z,8.20
2019-03-28T19:07:05.034Z,8.10
2019-03-28T19:10:06.668Z,8.10
2019-03-28T19:12:40.434Z,8.00
2019-03-28T19:15:24.423Z,7.80
2019-03-28T19:17:58.085Z,7.70
2019-03-28T19:20:33.348Z,7.60
2019-03-28T19:23:07.511Z,7.50
2019-03-28T19:25:54.366Z,7.50
2019-03-28T19:28:29.462Z,7.40
2019-03-28T19:31:18.466Z,7.40
2019-03-28T19:33:52.156Z,7.40
2019-03-28T19:36:54.302Z,7.30
2019-03-28T19:39:33.332Z,7.20
2019-03-28T19:42:07.027Z,7.00
2019-03-28T19:44:41.043Z,7.00
2019-03-28T19:47:14.807Z,7.00
2019-03-28T19:49:48.503Z,7.00
2019-03-28T19:52:25.979Z,6.90
2019-03-28T19:55:00.441Z,6.60
2019-03-28T19:57:55.506Z,6.60
2019-03-28T20:00:29.165Z,6.50
2019-03-28T20:03:03.491Z,6.30
2019-03-28T20:05:47.366Z,6.30
2019-03-28T20:08:16.061Z,6.20
2019-03-28T20:10:47.806Z,6.10
2019-03-28T20:13:21.474Z,6.00
2019-03-28T20:15:55.239Z,5.90
2019-03-28T20:18:28.835Z,5.80
2019-03-28T20:21:10.547Z,5.80
2019-03-28T20:23:44.237Z,5.70
2019-03-28T20:26:27.569Z,5.70
2019-03-28T20:29:01.299Z,5.70
2019-03-28T20:31:38.961Z,5.60
2019-03-28T20:34:12.618Z,5.60
2019-03-28T20:36:46.637Z,5.50
2019-03-28T20:39:20.366Z,5.50
2019-03-28T20:41:54.306Z,5.60
2019-03-28T20:44:27.967Z,5.70
2019-03-28T20:47:02.079Z,5.60
2019-03-28T20:49:35.770Z,5.70
2019-03-28T20:52:28.414Z,5.60
2019-03-28T20:55:04.695Z,5.50
2019-03-28T20:57:40.410Z,5.40
2019-03-28T21:00:14.643Z,5.30
2019-03-28T21:02:54.818Z,5.30
2019-03-28T21:05:28.501Z,5.30
2019-03-28T21:08:07.355Z,5.30
2019-03-28T21:10:41.015Z,5.20
2019-03-28T21:13:22.992Z,5.20
2019-03-28T21:15:56.657Z,5.20
2019-03-28T21:18:30.359Z,5.30
2019-03-28T21:21:04.938Z,5.50
2019-03-28T21:23:38.869Z,5.70
2019-03-28T21:26:12.740Z,5.70
2019-03-28T21:32:00.031Z,5.40
2019-03-28T21:34:33.929Z,5.40
2019-03-28T21:37:07.528Z,5.40
2019-03-28T21:39:41.191Z,5.20
2019-03-28T21:42:35.951Z,5.10
2019-03-28T21:45:09.934Z,5.10
2019-03-28T21:48:02.107Z,5.10
2019-03-28T21:50:35.801Z,5.10
2019-03-28T21:53:12.789Z,4.90
2019-03-28T21:55:54.910Z,4.80
2019-03-28T21:58:42.923Z,4.80
2019-03-28T22:01:16.655Z,4.80
2019-03-28T22:03:53.993Z,4.70
2019-03-28T22:06:27.742Z,4.60
2019-03-28T22:09:01.347Z,4.70
2019-03-28T22:11:35.445Z,4.70
2019-03-28T22:14:09.168Z,4.80
2019-03-28T22:16:42.825Z,4.70
2019-03-28T22:19:17.546Z,4.70
2019-03-28T22:21:51.322Z,4.80
2019-03-28T22:24:27.069Z,4.90
2019-03-28T22:27:00.657Z,4.70
2019-03-28T22:29:52.729Z,4.80
2019-03-28T22:32:26.957Z,4.70
2019-03-28T22:35:02.377Z,4.60
2019-03-28T22:37:36.004Z,4.70
2019-03-28T22:40:12.047Z,4.70
2019-03-28T22:42:45.984Z,4.80
2019-03-28T22:45:33.118Z,4.70
2019-03-28T22:48:11.160Z,4.60
2019-03-28T22:50:50.493Z,4.60
2019-03-28T22:53:24.144Z,4.60
2019-03-28T22:56:04.389Z,4.70
2019-03-28T22:58:38.022Z,4.80
2019-03-28T23:01:11.766Z,4.90
2019-03-28T23:03:48.945Z,4.90
2019-03-28T23:06:23.038Z,5.00
2019-03-28T23:09:06.524Z,5.00
2019-03-28T23:11:40.584Z,5.20
2019-03-28T23:14:22.117Z,5.00
2019-03-28T23:16:55.884Z,5.00
2019-03-28T23:19:34.608Z,5.10
2019-03-28T23:22:08.305Z,5.20
2019-03-28T23:25:04.184Z,5.20
2019-03-28T23:27:38.360Z,5.20
2019-03-28T23:30:30.357Z,5.20
2019-03-28T23:33:04.859Z,5.20
2019-03-28T23:35:42.181Z,5.20
2019-03-28T23:38:15.848Z,5.30
2019-03-28T23:40:59.136Z,5.30
2019-03-28T23:43:32.739Z,5.10
2019-03-28T23:46:18.688Z,4.90
2019-03-28T23:48:52.314Z,4.90
2019-03-28T23:51:35.152Z,4.70
2019-03-28T23:54:08.808Z,4.50
2019-03-28T23:56:51.111Z,4.30
2019-03-28T23:59:24.711Z,4.10
